createdAt,value
2018-09-03T00:06:55.621Z,29.93
2018-09-03T00:09:42.880Z,25.80
2018-09-03T00:12:19.458Z,28.87
2018-09-03T00:15:05.933Z,26.40
2018-09-03T00:20:43.700Z,16.73
2018-09-03T00:23:22.691Z,17.33
2018-09-03T00:26:04.960Z,32.33
2018-09-03T00:28:40.802Z,26.43
2018-09-03T00:31:22.922Z,26.57
2018-09-03T00:34:09.687Z,22.63
2018-09-03T00:37:51.654Z,29.47
2018-09-03T00:40:32.653Z,28.57
2018-09-03T00:43:16.122Z,14.63
2018-09-03T00:45:58.110Z,22.60
2018-09-03T00:48:32.998Z,18.60
2018-09-03T00:51:11.368Z,24.43
2018-09-03T00:53:54.035Z,16.30
2018-09-03T00:56:37.352Z,20.93
2018-09-03T00:59:14.814Z,23.97
2018-09-03T01:01:50.599Z,17.53
2018-09-03T01:04:24.915Z,25.37
2018-09-03T01:07:00.315Z,25.20
2018-09-03T01:09:37.699Z,27.53
2018-09-03T01:12:15.954Z,19.83
2018-09-03T01:14:51.076Z,20.07
2018-09-03T01:17:25.110Z,31.67
2018-09-03T01:20:14.836Z,17.50
2018-09-03T01:22:49.595Z,35.60
2018-09-03T01:25:22.599Z,28.70
2018-09-03T01:27:59.029Z,28.93
2018-09-03T01:30:32.178Z,33.43
2018-09-03T01:33:09.501Z,28.47
2018-09-03T01:36:03.484Z,35.00
2018-09-03T01:38:40.115Z,29.43
2018-09-03T01:41:19.717Z,33.47
2018-09-03T01:44:06.177Z,35.70
2018-09-03T01:46:50.536Z,24.07
2018-09-03T01:49:26.418Z,19.33
2018-09-03T01:52:08.282Z,22.87
2018-09-03T01:54:46.301Z,20.23
2018-09-03T01:57:34.760Z,24.77
2018-09-03T02:00:17.487Z,28.73
2018-09-03T02:02:52.373Z,30.20
2018-09-03T02:05:26.225Z,14.50
2018-09-03T02:08:01.900Z,18.07
2018-09-03T02:10:41.905Z,28.17
2018-09-03T02:13:20.786Z,17.70
2018-09-03T02:16:08.006Z,23.57
2018-09-03T02:21:44.809Z,25.93
2018-09-03T02:24:22.124Z,23.60
2018-09-03T02:26:55.913Z,23.07
2018-09-03T02:29:29.201Z,21.03
2018-09-03T02:32:11.558Z,20.30
2018-09-03T02:34:55.383Z,30.90
2018-09-03T02:37:30.043Z,41.57
2018-09-03T02:40:13.409Z,18.70
2018-09-03T02:42:55.657Z,22.33
2018-09-03T02:45:33.047Z,24.27
2018-09-03T02:48:10.585Z,21.40
2018-09-03T02:50:42.352Z,25.50
2018-09-03T02:53:20.849Z,22.03
2018-09-03T02:56:08.592Z,22.30
2018-09-03T02:58:44.850Z,23.40
2018-09-03T03:01:19.179Z,18.83
2018-09-03T03:06:43.421Z,25.17
2018-09-03T03:09:16.055Z,25.20
2018-09-03T03:11:49.879Z,18.13
2018-09-03T03:14:42.193Z,19.47
2018-09-03T03:17:33.452Z,24.87
2018-09-03T03:20:19.548Z,23.47
2018-09-03T03:22:54.273Z,25.10
2018-09-03T03:28:55.645Z,23.97
2018-09-03T03:31:24.492Z,21.30
2018-09-03T03:33:53.377Z,22.30
2018-09-03T03:36:22.216Z,25.53
2018-09-03T03:38:51.034Z,24.27
2018-09-03T03:41:19.849Z,20.60
2018-09-03T03:43:48.693Z,26.27
2018-09-03T03:46:17.506Z,22.80
2018-09-03T03:48:46.416Z,22.33
2018-09-03T03:51:15.415Z,23.37
2018-09-03T03:53:45.684Z,26.93
2018-09-03T03:56:14.490Z,23.63
2018-09-03T03:58:43.418Z,21.23
2018-09-03T04:01:12.253Z,28.10
2018-09-03T04:03:41.062Z,23.43
2018-09-03T04:06:10.052Z,25.10
2018-09-03T04:08:40.118Z,22.93
2018-09-03T04:11:08.968Z,28.20
2018-09-03T04:13:37.784Z,25.70
2018-09-03T04:16:06.649Z,26.40
2018-09-03T04:18:35.458Z,20.50
2018-09-03T04:21:04.288Z,26.70
2018-09-03T04:23:33.177Z,25.13
2018-09-03T04:26:02.165Z,18.90
2018-09-03T04:28:31.027Z,22.27
2018-09-03T04:31:01.243Z,24.57
2018-09-03T04:33:30.126Z,23.23
2018-09-03T04:35:59.024Z,22.47
2018-09-03T04:38:27.908Z,19.13
2018-09-03T04:40:56.818Z,20.30
2018-09-03T04:43:25.719Z,21.73
2018-09-03T04:45:54.823Z,19.30
2018-09-03T04:48:23.689Z,21.20
2018-09-03T04:50:52.571Z,29.23
2018-09-03T04:53:21.477Z,33.10
2018-09-03T04:55:50.370Z,30.13
2018-09-03T04:58:19.358Z,25.57
2018-09-03T05:00:48.227Z,33.53
2018-09-03T05:03:17.036Z,23.33
2018-09-03T05:05:45.891Z,21.80
2018-09-03T05:08:15.912Z,21.60
2018-09-03T05:10:46.076Z,24.67
2018-09-03T05:13:14.882Z,21.80
2018-09-03T05:15:43.714Z,17.93
2018-09-03T05:18:12.607Z,23.07
2018-09-03T05:20:41.542Z,25.53
2018-09-03T05:23:10.496Z,25.83
2018-09-03T05:25:39.366Z,30.20
2018-09-03T05:28:08.164Z,43.23
2018-09-03T05:30:36.978Z,48.03
2018-09-03T05:33:06.087Z,52.50
2018-09-03T05:35:34.924Z,43.27
2018-09-03T05:38:03.725Z,45.07
2018-09-03T05:40:32.620Z,33.70
2018-09-03T05:43:01.583Z,41.90
2018-09-03T05:45:30.498Z,40.17
2018-09-03T05:47:59.305Z,34.17
2018-09-03T05:50:28.309Z,28.07
2018-09-03T05:52:56.982Z,38.50
2018-09-03T05:55:25.903Z,50.13
2018-09-03T05:57:54.741Z,32.40
2018-09-03T06:00:23.593Z,30.60
2018-09-03T06:02:52.452Z,32.47
2018-09-03T06:05:21.351Z,28.50
2018-09-03T06:07:51.678Z,29.27
2018-09-03T06:10:20.546Z,23.03
2018-09-03T06:12:49.394Z,33.93
2018-09-03T06:15:19.798Z,32.70
2018-09-03T06:17:48.770Z,25.63
2018-09-03T06:20:18.800Z,27.00
2018-09-03T06:22:47.629Z,21.33
2018-09-03T06:25:16.413Z,23.73
2018-09-03T06:27:45.274Z,26.50
2018-09-03T06:30:14.103Z,20.50
2018-09-03T06:32:42.943Z,22.77
2018-09-03T06:35:13.165Z,20.33
2018-09-03T06:37:41.967Z,28.93
2018-09-03T06:40:10.814Z,28.53
2018-09-03T06:42:39.749Z,19.43
2018-09-03T06:45:08.831Z,23.87
2018-09-03T06:47:37.831Z,27.00
2018-09-03T06:50:09.285Z,23.33
2018-09-03T06:52:39.583Z,26.83
2018-09-03T06:55:08.478Z,20.30
2018-09-03T06:57:37.298Z,23.87
2018-09-03T07:00:06.988Z,21.47
2018-09-03T07:02:35.844Z,16.80
2018-09-03T07:05:04.803Z,20.03
2018-09-03T07:07:33.764Z,20.90
2018-09-03T07:10:02.588Z,18.40
2018-09-03T07:12:31.552Z,23.73
2018-09-03T07:15:01.819Z,24.83
2018-09-03T07:17:30.664Z,19.90
2018-09-03T07:19:59.676Z,23.97
2018-09-03T07:22:30.961Z,21.33
2018-09-03T07:24:59.828Z,17.40
2018-09-03T07:27:31.401Z,22.53
2018-09-03T07:30:01.595Z,21.97
2018-09-03T07:32:30.589Z,26.47
2018-09-03T07:35:01.083Z,20.37
2018-09-03T07:37:29.935Z,20.47
2018-09-03T07:39:58.728Z,18.73
2018-09-03T07:42:27.613Z,23.23
2018-09-03T07:44:56.417Z,24.17
2018-09-03T07:47:25.223Z,20.80
2018-09-03T07:49:54.080Z,18.97
2018-09-03T07:52:22.942Z,24.80
2018-09-03T07:54:51.938Z,20.27
2018-09-03T07:57:20.797Z,23.93
2018-09-03T07:59:49.633Z,15.57
2018-09-03T08:02:18.455Z,22.87
2018-09-03T08:04:48.666Z,23.50
2018-09-03T08:07:17.502Z,24.97
2018-09-03T08:09:46.325Z,18.13
2018-09-03T08:12:16.660Z,20.17
2018-09-03T08:14:45.482Z,18.87
2018-09-03T08:17:14.347Z,22.90
2018-09-03T08:19:43.226Z,19.60
2018-09-03T08:22:12.143Z,25.97
2018-09-03T08:24:40.956Z,19.07
2018-09-03T08:27:09.868Z,21.07
2018-09-03T08:29:39.938Z,26.73
2018-09-03T08:32:08.774Z,13.73
2018-09-03T08:34:38.993Z,27.27
2018-09-03T08:37:07.867Z,18.97
2018-09-03T08:39:36.689Z,21.33
2018-09-03T08:42:06.981Z,18.70
2018-09-03T08:44:35.813Z,20.07
2018-09-03T08:47:04.680Z,21.73
2018-09-03T08:49:33.604Z,22.83
2018-09-03T08:52:02.517Z,25.17
2018-09-03T08:54:31.396Z,18.73
2018-09-03T08:57:00.265Z,17.33
2018-09-03T08:59:29.186Z,27.37
2018-09-03T09:01:58.061Z,46.67
2018-09-03T09:04:26.885Z,41.10
2018-09-03T09:06:55.748Z,33.10
2018-09-03T09:09:24.622Z,46.30
2018-09-03T09:11:53.450Z,25.90
2018-09-03T09:14:22.300Z,25.03
2018-09-03T09:16:51.231Z,19.43
2018-09-03T09:19:20.147Z,18.00
2018-09-03T09:21:48.975Z,22.30
2018-09-03T09:24:17.855Z,15.10
2018-09-03T09:26:46.746Z,23.63
2018-09-03T09:29:15.580Z,41.70
2018-09-03T09:31:44.449Z,23.20
2018-09-03T09:34:13.334Z,24.40
2018-09-03T09:36:42.241Z,25.20
2018-09-03T09:39:11.313Z,27.83
2018-09-03T09:41:40.172Z,17.10
2018-09-03T09:44:10.075Z,21.17
2018-09-03T09:46:38.947Z,19.23
2018-09-03T09:49:07.784Z,26.23
2018-09-03T09:51:36.642Z,21.37
2018-09-03T09:54:05.563Z,17.30
2018-09-03T09:56:34.397Z,19.97
2018-09-03T09:59:03.313Z,23.13
2018-09-03T10:01:37.016Z,17.13
2018-09-03T10:04:06.065Z,32.33
2018-09-03T10:06:34.889Z,17.17
2018-09-03T10:09:05.717Z,18.73
2018-09-03T10:11:34.571Z,18.63
2018-09-03T10:14:03.417Z,16.70
2018-09-03T10:16:32.434Z,18.80
2018-09-03T10:19:01.309Z,19.57
2018-09-03T10:21:30.177Z,21.80
2018-09-03T10:24:00.360Z,21.10
2018-09-03T10:26:29.270Z,21.63
2018-09-03T10:28:58.161Z,18.23
2018-09-03T10:31:27.065Z,21.20
2018-09-03T10:33:55.886Z,16.60
2018-09-03T10:36:24.774Z,16.70
2018-09-03T10:38:53.633Z,24.07
2018-09-03T10:41:23.878Z,18.57
2018-09-03T10:43:52.697Z,15.73
2018-09-03T10:46:21.605Z,15.33
2018-09-03T10:48:51.781Z,20.70
2018-09-03T10:51:20.633Z,21.23
2018-09-03T10:53:49.510Z,19.70
2018-09-03T10:56:18.387Z,20.60
2018-09-03T10:58:47.440Z,22.53
2018-09-03T11:01:16.294Z,16.80
2018-09-03T11:03:45.192Z,26.73
2018-09-03T11:06:15.464Z,19.90
2018-09-03T11:08:45.584Z,19.30
2018-09-03T11:11:14.425Z,19.43
2018-09-03T11:13:44.584Z,20.77
2018-09-03T11:16:13.473Z,19.10
2018-09-03T11:18:42.336Z,17.53
2018-09-03T11:21:11.256Z,13.20
2018-09-03T11:23:40.121Z,14.37
2018-09-03T11:26:08.977Z,21.10
2018-09-03T11:28:37.948Z,17.77
2018-09-03T11:31:06.945Z,23.53
2018-09-03T11:33:35.780Z,15.97
2018-09-03T11:36:04.670Z,15.67
2018-09-03T11:38:33.533Z,20.87
2018-09-03T11:41:02.374Z,13.60
2018-09-03T11:43:31.262Z,23.47
2018-09-03T11:46:00.093Z,20.30
2018-09-03T11:48:28.980Z,20.10
2018-09-03T11:50:59.151Z,17.40
2018-09-03T11:53:28.067Z,25.07
2018-09-03T11:55:56.933Z,14.53
2018-09-03T11:58:27.123Z,17.03
2018-09-03T12:00:58.912Z,17.83
2018-09-03T12:03:27.780Z,20.73
2018-09-03T12:05:56.725Z,21.83
2018-09-03T12:08:25.644Z,21.57
2018-09-03T12:10:54.478Z,18.67
2018-09-03T12:13:23.322Z,15.80
2018-09-03T12:16:25.719Z,21.93
2018-09-03T12:18:58.233Z,21.60
2018-09-03T12:21:28.451Z,18.03
2018-09-03T12:23:58.518Z,14.13
2018-09-03T12:26:27.385Z,18.20
2018-09-03T12:28:56.501Z,17.97
2018-09-03T12:31:25.445Z,18.13
2018-09-03T12:33:54.235Z,17.70
2018-09-03T12:36:23.174Z,15.57
2018-09-03T12:38:52.091Z,17.93
2018-09-03T12:41:21.032Z,15.80
2018-09-03T12:43:49.958Z,18.47
2018-09-03T12:46:18.923Z,16.67
2018-09-03T12:48:47.743Z,16.90
2018-09-03T12:51:16.595Z,14.47
2018-09-03T12:53:45.506Z,18.13
2018-09-03T12:56:14.397Z,17.97
2018-09-03T12:58:43.264Z,13.20
2018-09-03T13:01:12.173Z,14.23
2018-09-03T13:03:40.988Z,11.43
2018-09-03T13:06:09.810Z,16.00
2018-09-03T13:08:38.688Z,13.47
2018-09-03T13:11:07.578Z,16.20
2018-09-03T13:13:36.494Z,16.33
2018-09-03T13:16:05.597Z,11.97
2018-09-03T13:18:35.736Z,14.30
2018-09-03T13:21:04.567Z,15.43
2018-09-03T13:23:33.436Z,13.27
2018-09-03T13:26:02.330Z,12.40
2018-09-03T13:28:31.163Z,11.50
2018-09-03T13:31:06.641Z,11.83
2018-09-03T13:33:35.484Z,14.57
2018-09-03T13:36:04.374Z,11.80
2018-09-03T13:38:33.370Z,15.77
2018-09-03T13:41:02.467Z,8.60
2018-09-03T13:43:31.369Z,13.43
2018-09-03T13:46:00.296Z,13.63
2018-09-03T13:48:29.168Z,11.17
2018-09-03T13:50:58.072Z,18.23
2018-09-03T13:53:26.921Z,12.67
2018-09-03T13:55:55.794Z,10.47
2018-09-03T13:58:24.645Z,13.33
2018-09-03T14:00:53.480Z,14.37
2018-09-03T14:03:24.168Z,12.17
2018-09-03T14:05:53.133Z,12.23
2018-09-03T14:08:22.012Z,11.27
2018-09-03T14:10:50.869Z,14.13
2018-09-03T14:13:19.673Z,14.50
2018-09-03T14:15:49.988Z,14.93
2018-09-03T14:18:18.825Z,17.77
2018-09-03T14:20:47.786Z,12.50
2018-09-03T14:23:18.000Z,14.10
2018-09-03T14:25:46.836Z,19.07
2018-09-03T14:28:15.684Z,12.33
2018-09-03T14:30:44.557Z,14.07
2018-09-03T14:33:13.384Z,16.33
2018-09-03T14:35:42.302Z,12.23
2018-09-03T14:38:11.190Z,16.77
2018-09-03T14:40:40.025Z,13.57
2018-09-03T14:43:10.299Z,16.47
2018-09-03T14:45:39.034Z,14.97
2018-09-03T14:48:07.923Z,12.37
2018-09-03T14:50:36.785Z,10.63
2018-09-03T14:53:05.597Z,19.90
2018-09-03T14:55:34.466Z,11.37
2018-09-03T14:58:03.319Z,12.80
2018-09-03T15:00:32.181Z,14.27
2018-09-03T15:03:00.994Z,16.50
2018-09-03T15:05:29.890Z,21.63
2018-09-03T15:07:58.721Z,19.27
2018-09-03T15:10:27.534Z,13.63
2018-09-03T15:12:56.504Z,16.77
2018-09-03T15:15:25.352Z,27.03
2018-09-03T15:17:54.205Z,19.80
2018-09-03T15:20:23.154Z,12.90
2018-09-03T15:22:51.962Z,18.57
2018-09-03T15:25:20.801Z,20.20
2018-09-03T15:27:50.937Z,16.27
2018-09-03T15:30:19.929Z,14.87
2018-09-03T15:32:48.769Z,23.27
2018-09-03T15:35:17.613Z,16.43
2018-09-03T15:37:46.491Z,15.07
2018-09-03T15:40:15.320Z,18.83
2018-09-03T15:42:44.186Z,17.43
2018-09-03T15:45:13.142Z,15.17
2018-09-03T15:47:42.065Z,15.53
2018-09-03T15:50:10.900Z,17.43
2018-09-03T15:52:41.024Z,12.03
2018-09-03T15:55:09.969Z,14.97
2018-09-03T15:57:38.859Z,15.17
2018-09-03T16:00:09.165Z,13.40
2018-09-03T16:02:39.563Z,17.87
2018-09-03T16:05:08.430Z,15.50
2018-09-03T16:07:37.281Z,16.33
2018-09-03T16:10:06.560Z,25.47
2018-09-03T16:12:35.428Z,20.37
2018-09-03T16:15:04.313Z,19.67
2018-09-03T16:17:34.535Z,17.57
2018-09-03T16:20:03.513Z,18.17
2018-09-03T16:22:32.441Z,24.50
2018-09-03T16:25:01.327Z,20.63
2018-09-03T16:27:30.499Z,17.97
2018-09-03T16:29:59.256Z,19.20
2018-09-03T16:32:28.176Z,23.27
2018-09-03T16:34:58.322Z,19.50
2018-09-03T16:37:27.152Z,19.17
2018-09-03T16:39:55.992Z,20.57
2018-09-03T16:42:26.308Z,21.70
2018-09-03T16:44:55.165Z,16.93
2018-09-03T16:47:25.236Z,21.80
2018-09-03T16:49:54.057Z,17.07
2018-09-03T16:52:22.965Z,19.67
2018-09-03T16:54:52.985Z,20.53
2018-09-03T16:57:21.850Z,18.27
2018-09-03T16:59:50.685Z,18.97
2018-09-03T17:02:20.949Z,22.07
2018-09-03T17:04:49.827Z,17.87
2018-09-03T17:07:18.807Z,15.00
2018-09-03T17:09:47.792Z,14.33
2018-09-03T17:12:16.642Z,15.40
2018-09-03T17:14:45.637Z,17.23
2018-09-03T17:17:14.505Z,21.20
2018-09-03T17:19:43.408Z,17.07
2018-09-03T17:22:12.385Z,21.53
2018-09-03T17:24:41.436Z,17.80
2018-09-03T17:27:10.315Z,16.43
2018-09-03T17:29:39.279Z,16.57
2018-09-03T17:32:08.205Z,16.17
2018-09-03T17:34:37.106Z,19.10
2018-09-03T17:37:06.312Z,16.33
2018-09-03T17:39:35.225Z,19.30
2018-09-03T17:42:04.275Z,16.80
2018-09-03T17:44:33.161Z,23.33
2018-09-03T17:47:02.076Z,14.33
2018-09-03T17:49:31.010Z,16.00
2018-09-03T17:52:00.190Z,17.83
2018-09-03T17:54:30.340Z,14.70
2018-09-03T17:56:59.167Z,18.60
2018-09-03T17:59:28.010Z,17.97
2018-09-03T18:01:56.897Z,18.67
2018-09-03T18:04:25.758Z,14.33
2018-09-03T18:06:54.618Z,20.47
2018-09-03T18:09:23.514Z,16.63
2018-09-03T18:11:52.400Z,20.57
2018-09-03T18:14:21.230Z,17.70
2018-09-03T18:16:51.408Z,14.40
2018-09-03T18:19:20.302Z,17.47
2018-09-03T18:21:49.275Z,16.55
2018-09-03T18:24:18.157Z,16.10
2018-09-03T18:26:46.969Z,22.60
2018-09-03T18:29:15.829Z,22.10
2018-09-03T18:31:45.989Z,18.87
2018-09-03T18:34:14.814Z,24.33
2018-09-03T18:36:43.881Z,18.43
2018-09-03T18:39:13.959Z,19.50
2018-09-03T18:41:42.856Z,20.07
2018-09-03T18:44:11.653Z,16.30
2018-09-03T18:46:41.829Z,17.90
2018-09-03T18:49:10.756Z,15.90
2018-09-03T18:51:39.629Z,17.03
2018-09-03T18:54:09.696Z,19.33
2018-09-03T18:56:38.522Z,23.73
2018-09-03T18:59:07.445Z,17.83
2018-09-03T19:01:36.309Z,20.20
2018-09-03T19:04:05.145Z,23.77
2018-09-03T19:06:34.007Z,16.63
2018-09-03T19:09:04.286Z,17.13
2018-09-03T19:11:33.141Z,20.90
2018-09-03T19:14:01.979Z,23.33
2018-09-03T19:16:29.709Z,21.63
2018-09-03T19:18:59.898Z,19.40
2018-09-03T19:21:28.767Z,17.40
2018-09-03T19:23:57.629Z,15.00
2018-09-03T19:26:26.457Z,14.80
2018-09-03T19:28:55.466Z,20.13
2018-09-03T19:31:24.296Z,18.60
2018-09-03T19:33:54.436Z,17.40
2018-09-03T19:36:23.250Z,17.90
2018-09-03T19:38:52.132Z,16.77
2018-09-03T19:41:21.038Z,18.63
2018-09-03T19:43:49.881Z,19.87
2018-09-03T19:46:18.753Z,16.47
2018-09-03T19:48:47.660Z,19.00
2018-09-03T19:51:16.505Z,13.53
2018-09-03T19:53:45.321Z,19.20
2018-09-03T19:56:14.241Z,17.70
2018-09-03T19:58:44.385Z,19.87
2018-09-03T20:01:13.244Z,14.90
2018-09-03T20:03:42.061Z,14.80
2018-09-03T20:06:10.955Z,18.93
2018-09-03T20:08:40.183Z,15.03
2018-09-03T20:11:09.091Z,12.83
2018-09-03T20:13:39.612Z,15.10
2018-09-03T20:16:08.548Z,19.13
2018-09-03T20:18:37.389Z,10.60
2018-09-03T20:21:06.425Z,18.43
2018-09-03T20:23:35.466Z,19.07
2018-09-03T20:26:04.282Z,23.33
2018-09-03T20:28:33.168Z,17.40
2018-09-03T20:31:02.120Z,19.60
2018-09-03T20:33:31.005Z,17.33
2018-09-03T20:35:59.842Z,18.20
2018-09-03T20:38:28.681Z,19.23
2018-09-03T20:40:58.809Z,18.00
2018-09-03T20:43:27.661Z,18.43
2018-09-03T20:45:56.500Z,15.27
2018-09-03T20:48:25.464Z,18.50
2018-09-03T20:50:54.313Z,23.17
2018-09-03T20:53:23.173Z,18.40
2018-09-03T20:55:52.128Z,19.10
2018-09-03T20:58:20.946Z,16.70
2018-09-03T21:00:49.893Z,19.20
2018-09-03T21:03:18.705Z,13.97
2018-09-03T21:05:47.593Z,15.43
2018-09-03T21:08:16.498Z,15.47
2018-09-03T21:10:45.325Z,15.23
2018-09-03T21:13:14.204Z,16.17
2018-09-03T21:15:43.049Z,14.23
2018-09-03T21:18:11.891Z,15.90
2018-09-03T21:20:40.858Z,18.20
2018-09-03T21:23:09.729Z,13.00
2018-09-03T21:25:38.505Z,10.43
2018-09-03T21:28:07.427Z,14.83
2018-09-03T21:30:36.264Z,15.70
2018-09-03T21:33:05.153Z,15.73
2018-09-03T21:35:34.025Z,18.23
2018-09-03T21:38:02.973Z,15.87
2018-09-03T21:40:31.825Z,13.43
2018-09-03T21:43:00.671Z,17.13
2018-09-03T21:45:29.485Z,13.70
2018-09-03T21:47:58.298Z,12.80
2018-09-03T21:50:27.161Z,13.40
2018-09-03T21:52:55.967Z,17.73
2018-09-03T21:55:24.781Z,13.20
2018-09-03T21:57:53.625Z,15.07
2018-09-03T22:00:22.498Z,9.43
2018-09-03T22:02:51.316Z,9.87
2018-09-03T22:05:20.156Z,14.10
2018-09-03T22:07:48.953Z,9.53
2018-09-03T22:10:17.753Z,16.23
2018-09-03T22:12:46.613Z,14.57
2018-09-03T22:15:15.429Z,20.17
2018-09-03T22:17:45.671Z,13.77
2018-09-03T22:20:14.534Z,12.83
2018-09-03T22:22:43.381Z,18.57
2018-09-03T22:25:12.351Z,22.93
2018-09-03T22:27:41.226Z,15.17
2018-09-03T22:30:10.138Z,20.93
2018-09-03T22:32:38.969Z,17.57
2018-09-03T22:35:07.894Z,14.50
2018-09-03T22:37:36.712Z,18.40
2018-09-03T22:40:05.727Z,18.03
2018-09-03T22:42:34.606Z,14.87
2018-09-03T22:45:03.515Z,13.50
2018-09-03T22:47:32.336Z,16.07
2018-09-03T22:50:01.171Z,16.30
2018-09-03T22:52:30.053Z,15.57
2018-09-03T22:54:58.853Z,15.57
2018-09-03T22:57:27.784Z,15.97
2018-09-03T22:59:56.594Z,9.90
2018-09-03T23:02:36.020Z,16.83
2018-09-03T23:05:05.302Z,19.53
2018-09-03T23:07:34.178Z,12.90
2018-09-03T23:10:03.003Z,14.30
2018-09-03T23:12:31.961Z,15.73
2018-09-03T23:15:00.860Z,13.07
2018-09-03T23:17:29.758Z,16.40
2018-09-03T23:19:58.610Z,11.60
2018-09-03T23:22:27.477Z,12.23
2018-09-03T23:24:56.609Z,11.53
2018-09-03T23:27:25.923Z,11.93
2018-09-03T23:29:54.823Z,9.93
2018-09-03T23:32:23.763Z,9.40
2018-09-03T23:34:52.708Z,10.03
2018-09-03T23:37:21.585Z,11.23
2018-09-03T23:39:50.434Z,10.37
2018-09-03T23:42:19.370Z,11.67
2018-09-03T23:44:48.273Z,10.20
2018-09-03T23:47:17.199Z,9.30
2018-09-03T23:49:46.191Z,12.57
2018-09-03T23:52:15.163Z,11.33
2018-09-03T23:54:44.056Z,18.43
2018-09-03T23:57:13.095Z,11.33
2018-09-03T23:59:42.049Z,20.23
